Lobo

Go HERE for most recent data if this page is not up to date.

Jump to table bottom
Date/Time Temp deg F RH % 24 Hr Snow (in) Snow Depth (in) H2O (in)
02/22 06:00 19.9 74 0.1 39.8 0.00
02/22 05:00 19.9 65 0.0 39.9 0.00
02/22 04:00 20.3 77 0.0 39.9 0.00
02/22 03:00 20.7 77 0.0 40.0 0.00
02/22 02:00 19.3 84 0.0 39.9 0.00
02/22 01:00 19.9 75 0.1 39.9 0.00
02/22 00:00 21.2 79 0.0 40.1 0.00
02/21 23:00 22.1 72 0.2 40.1 0.00
02/21 22:00 22.0 70 0.2 40.1 0.00
02/21 21:00 21.6 67 0.2 40.1 0.00
02/21 20:00 22.2 67 0.0 40.1 0.00
02/21 19:00 22.9 65 0.0 40.1 0.00
02/21 18:00 24.0 62 -0.0 40.1 0.00
02/21 17:00 26.0 56 -0.2 40.1 0.00
02/21 16:00 27.1 52 -0.2 40.1 0.00
02/21 15:00 28.2 52 -0.3 40.2 0.00
02/21 14:00 30.0 49 -0.3 40.2 0.00
02/21 13:00 28.7 48 -0.2 40.2 0.00
02/21 12:00 26.8 54 -0.0 40.2 0.00
02/21 11:00 25.6 50 0.0 40.2 0.00
02/21 10:00 23.4 59 0.2 40.3 0.00
02/21 09:00 20.7 63 0.2 40.2 0.00
02/21 08:00 18.8 73 0.2 40.3 0.00
02/21 07:00 19.4 73 0.0 40.3 0.00
02/21 06:00 17.8 76 0.2 40.4 0.00
02/21 05:00 17.0 100 0.0 40.4 0.00
02/21 04:00 18.4 87 0.0 40.4 0.00
02/21 03:00 18.9 79 0.0 40.4 0.00
02/21 02:00 20.5 73 0.2 40.6 0.00
02/21 01:00 21.3 62 0.0 40.6 0.00
02/21 00:00 21.8 71 0.1 40.7 0.00
.